Time;durP1;ratioP1;P1;durP2;ratioP2;P2;SDS_P1;SDS_P2;PMS_P1;PMS_P2;Temp;Humidity;BMP_temperature;BMP_pressure;BME280_temperature;BME280_humidity;BME280_pressure;Samples;Min_cycle;Max_cycle;Signal;HPM_P1;HPM_P2
2022/01/27 00:02:43;;;;;;;55.30;39.33;;;1.70;99.90;;;;;;5094566;28;20561;-76
2022/01/27 00:05:16;;;;;;;49.80;35.17;;;1.60;99.90;;;;;;5094621;28;20251;-76
2022/01/27 00:07:43;;;;;;;59.77;39.30;;;1.60;99.90;;;;;;5093949;28;20740;-76
2022/01/27 00:10:20;;;;;;;47.67;34.77;;;1.60;99.90;;;;;;5094724;28;20243;-76
2022/01/27 00:12:48;;;;;;;54.73;37.70;;;1.60;99.90;;;;;;5094055;28;20209;-77
2022/01/27 00:15:17;;;;;;;49.37;37.17;;;1.60;99.90;;;;;;5094233;28;20292;-77
2022/01/27 00:17:47;;;;;;;52.90;36.90;;;1.50;99.90;;;;;;5094046;28;20201;-78
2022/01/27 00:20:16;;;;;;;50.53;36.00;;;1.40;99.90;;;;;;5094192;28;20202;-77
2022/01/27 00:22:43;;;;;;;46.20;33.77;;;1.50;99.90;;;;;;5094054;28;20665;-78
2022/01/27 00:25:11;;;;;;;54.13;36.40;;;1.50;99.90;;;;;;5094193;28;20288;-77
2022/01/27 00:27:39;;;;;;;56.00;34.73;;;1.40;1.00;;;;;;5094236;28;20257;-77
2022/01/27 00:30:08;;;;;;;52.30;34.33;;;1.40;1.00;;;;;;5094393;28;20229;-75
2022/01/27 00:32:37;;;;;;;50.40;33.57;;;1.40;1.00;;;;;;5094187;28;20199;-75
2022/01/27 00:35:05;;;;;;;48.43;35.07;;;1.50;1.00;;;;;;5094202;28;20202;-75
2022/01/27 00:37:32;;;;;;;52.10;34.30;;;1.40;1.00;;;;;;5094286;28;20209;-76
2022/01/27 00:39:59;;;;;;;44.13;34.63;;;1.40;1.00;;;;;;5093818;28;20345;-76
2022/01/27 00:42:27;;;;;;;46.30;34.77;;;1.30;1.00;;;;;;5093835;28;20683;-75
2022/01/27 00:44:55;;;;;;;48.83;33.30;;;1.30;1.00;;;;;;5093225;28;20202;-77
2022/01/27 00:47:22;;;;;;;48.40;32.87;;;1.40;1.00;;;;;;5094060;28;20202;-76
2022/01/27 00:49:50;;;;;;;52.77;34.70;;;1.40;1.00;;;;;;5093481;28;20230;-76
2022/01/27 00:52:26;;;;;;;46.03;31.60;;;1.30;99.90;;;;;;5093655;28;20205;-77
2022/01/27 00:54:54;;;;;;;45.63;32.73;;;1.20;99.90;;;;;;5092491;28;20223;-76
2022/01/27 00:57:34;;;;;;;50.07;34.10;;;1.30;1.00;;;;;;5093637;28;20240;-77
2022/01/27 01:00:03;;;;;;;58.77;36.60;;;1.30;1.00;;;;;;5092879;28;20197;-78
2022/01/27 01:02:40;;;;;;;50.47;35.30;;;1.30;99.90;;;;;;5093806;28;20235;-77
2022/01/27 01:05:27;;;;;;;44.57;32.07;;;1.20;99.90;;;;;;5093778;28;20204;-77
2022/01/27 01:07:58;;;;;;;48.63;32.87;;;1.10;1.00;;;;;;5093141;28;20202;-83
2022/01/27 01:15:56;;;;;;;47.43;35.07;;;0.90;1.00;;;;;;5016889;28;20235;-86
2022/01/27 01:18:38;;;;;;;48.63;34.27;;;0.90;1.00;;;;;;5073800;28;20209;-87
2022/01/27 01:29:29;;;;;;;41.23;30.43;;;1.10;1.00;;;;;;5073740;28;20347;-85
2022/01/27 01:32:12;;;;;;;40.93;29.83;;;1.10;1.00;;;;;;5072952;28;20212;-83
2022/01/27 01:34:44;;;;;;;45.77;29.53;;;1.10;1.00;;;;;;5072961;28;20210;-74
2022/01/27 01:37:17;;;;;;;40.77;27.70;;;1.10;1.00;;;;;;5073020;28;20206;-85
2022/01/27 01:39:44;;;;;;;42.70;27.53;;;1.10;1.00;;;;;;5072483;28;20206;-84
2022/01/27 01:42:12;;;;;;;45.20;29.80;;;1.10;1.00;;;;;;5072848;28;20618;-80
2022/01/27 01:44:40;;;;;;;38.13;26.60;;;1.10;1.00;;;;;;5072558;28;20213;-76
2022/01/27 01:47:07;;;;;;;36.03;25.57;;;1.00;1.00;;;;;;5072999;28;20624;-81
2022/01/27 01:49:35;;;;;;;40.43;26.53;;;1.10;1.00;;;;;;5072862;28;20285;-76
2022/01/27 01:52:07;;;;;;;38.30;25.67;;;1.20;1.00;;;;;;5072271;28;20206;-79
2022/01/27 01:54:36;;;;;;;41.63;28.23;;;1.10;1.00;;;;;;5072780;28;20206;-77
2022/01/27 01:57:03;;;;;;;38.33;26.60;;;1.10;1.00;;;;;;5072072;28;20206;-81
2022/01/27 01:59:30;;;;;;;37.20;26.20;;;1.20;1.00;;;;;;5072531;28;20202;-81
2022/01/27 02:01:58;;;;;;;39.70;27.00;;;1.10;1.00;;;;;;5071936;28;20234;-77
2022/01/27 02:04:25;;;;;;;32.60;24.93;;;1.20;1.00;;;;;;5071922;28;20202;-77
2022/01/27 02:06:56;;;;;;;34.73;25.03;;;1.00;1.00;;;;;;5070902;28;20206;-76
2022/01/27 02:09:33;;;;;;;33.77;23.63;;;1.10;1.00;;;;;;5072204;28;20206;-80
2022/01/27 02:20:16;;;;;;;30.83;24.37;;;1.10;1.00;;;;;;5071926;28;20205;-79
2022/01/27 02:22:43;;;;;;;32.57;23.80;;;1.10;1.00;;;;;;5071589;28;20202;-79
2022/01/27 02:25:11;;;;;;;29.57;22.50;;;1.00;1.00;;;;;;5071601;28;20212;-80
2022/01/27 02:27:38;;;;;;;30.27;22.10;;;0.90;1.00;;;;;;5071755;28;20202;-79
2022/01/27 02:30:07;;;;;;;31.63;23.23;;;0.90;1.00;;;;;;5071881;28;20271;-78
2022/01/27 02:32:34;;;;;;;33.27;21.40;;;1.00;1.00;;;;;;5071945;28;20212;-77
2022/01/27 02:35:01;;;;;;;31.10;22.40;;;1.10;1.00;;;;;;5071177;28;20731;-76
2022/01/27 02:37:29;;;;;;;35.23;23.63;;;1.10;1.00;;;;;;5071614;28;20581;-78
2022/01/27 02:39:56;;;;;;;31.87;23.60;;;0.90;1.00;;;;;;5070819;28;20252;-78
2022/01/27 02:42:30;;;;;;;31.73;23.63;;;0.80;1.00;;;;;;5071619;28;20207;-76
2022/01/27 02:45:07;;;;;;;33.20;24.63;;;0.80;1.00;;;;;;5070954;28;20271;-76
2022/01/27 02:47:35;;;;;;;35.87;25.47;;;0.70;1.00;;;;;;5071581;28;20201;-76
2022/01/27 02:50:02;;;;;;;32.57;23.40;;;0.70;1.00;;;;;;5071016;28;20222;-76
2022/01/27 02:52:31;;;;;;;37.13;26.50;;;0.70;1.00;;;;;;5071178;28;20267;-79
2022/01/27 02:54:58;;;;;;;41.30;28.73;;;0.60;1.00;;;;;;5070464;28;20206;-78
2022/01/27 02:57:26;;;;;;;34.93;24.80;;;0.40;1.00;;;;;;5071364;28;20202;-80
2022/01/27 02:59:53;;;;;;;35.20;26.20;;;0.50;1.00;;;;;;5070810;28;20251;-77
2022/01/27 03:02:21;;;;;;;37.93;26.07;;;0.40;1.00;;;;;;5071065;28;20327;-77
2022/01/27 03:04:48;;;;;;;35.00;25.33;;;0.20;1.00;;;;;;5070608;28;20241;-77
2022/01/27 03:07:15;;;;;;;38.27;28.80;;;0.20;1.00;;;;;;5071000;28;20202;-78
2022/01/27 03:09:44;;;;;;;33.73;26.77;;;0.30;8.40;;;;;;5070461;28;20690;-77
2022/01/27 03:12:12;;;;;;;36.97;25.83;;;0.40;27.30;;;;;;5071150;28;20638;-77
2022/01/27 03:14:41;;;;;;;42.43;29.43;;;0.50;1.00;;;;;;5070651;28;20611;-77
2022/01/27 03:17:09;;;;;;;46.80;29.97;;;0.50;1.00;;;;;;5070913;28;20205;-77
2022/01/27 03:19:37;;;;;;;42.63;26.70;;;0.40;1.00;;;;;;5070900;28;20629;-77
2022/01/27 03:22:05;;;;;;;37.03;26.20;;;0.30;1.00;;;;;;5071155;28;20209;-77
2022/01/27 03:24:33;;;;;;;40.77;28.00;;;0.10;1.00;;;;;;5070876;28;20753;-77
2022/01/27 03:27:02;;;;;;;37.07;27.43;;;0.10;16.00;;;;;;5070453;28;20237;-77
2022/01/27 03:29:30;;;;;;;42.13;27.77;;;0.10;99.90;;;;;;5070905;28;20234;-77
2022/01/27 03:31:57;;;;;;;43.30;26.10;;;0.10;99.90;;;;;;5070650;28;20291;-77
2022/01/27 03:34:24;;;;;;;40.33;27.70;;;0.30;1.00;;;;;;5071015;28;20206;-77
2022/01/27 03:36:51;;;;;;;36.90;25.33;;;0.40;99.90;;;;;;5070586;28;20582;-77
2022/01/27 03:39:21;;;;;;;37.07;25.93;;;0.40;51.80;;;;;;5070727;28;20689;-77
2022/01/27 03:41:49;;;;;;;36.80;25.07;;;0.40;1.00;;;;;;5070434;28;20206;-79
2022/01/27 03:44:18;;;;;;;35.33;24.73;;;0.30;1.00;;;;;;5070418;28;20209;-80
2022/01/27 03:46:45;;;;;;;41.77;27.30;;;0.30;1.00;;;;;;5070216;28;20206;-79
2022/01/27 03:49:13;;;;;;;41.90;28.37;;;0.30;1.00;;;;;;5070517;28;20727;-78
2022/01/27 03:51:40;;;;;;;37.63;26.47;;;0.30;1.00;;;;;;5069865;28;20233;-77
2022/01/27 03:54:07;;;;;;;39.33;26.03;;;0.30;1.00;;;;;;5070827;28;20617;-80
2022/01/27 03:56:34;;;;;;;35.63;26.00;;;0.30;1.00;;;;;;5070854;28;20198;-78
2022/01/27 03:59:01;;;;;;;44.63;27.93;;;0.20;1.00;;;;;;5070054;28;20206;-77
2022/01/27 04:01:30;;;;;;;35.83;26.33;;;0.10;1.00;;;;;;5070654;28;20205;-75
2022/01/27 04:03:59;;;;;;;34.97;23.67;;;0.10;1.00;;;;;;5070282;28;20262;-75
2022/01/27 04:06:33;;;;;;;42.03;27.37;;;0.20;1.00;;;;;;5070348;28;20209;-75
2022/01/27 04:09:01;;;;;;;36.30;25.73;;;0.20;1.00;;;;;;5070138;28;20259;-78
2022/01/27 04:11:28;;;;;;;31.17;24.17;;;0.20;1.00;;;;;;5070223;28;20283;-79
2022/01/27 04:13:55;;;;;;;36.60;25.50;;;0.30;1.00;;;;;;5070224;28;20206;-80
2022/01/27 04:16:23;;;;;;;39.30;25.90;;;0.30;1.00;;;;;;5070615;28;20248;-78
2022/01/27 04:18:52;;;;;;;44.97;27.63;;;0.30;1.00;;;;;;5069991;28;20206;-77
2022/01/27 04:21:19;;;;;;;35.20;26.67;;;0.20;1.00;;;;;;5070230;28;20255;-78
2022/01/27 04:23:48;;;;;;;33.90;25.93;;;0.20;1.00;;;;;;5069657;28;20732;-76
2022/01/27 04:26:18;;;;;;;36.03;26.17;;;0.20;1.00;;;;;;5070297;28;20632;-79
2022/01/27 04:28:47;;;;;;;37.80;25.43;;;0.20;1.00;;;;;;5069586;28;20206;-78
2022/01/27 04:31:14;;;;;;;36.67;25.40;;;0.30;1.00;;;;;;5072529;28;20237;-80
2022/01/27 04:33:41;;;;;;;40.17;27.13;;;0.30;1.00;;;;;;5073643;28;20255;-80
2022/01/27 04:36:16;;;;;;;35.87;25.27;;;0.30;1.00;;;;;;5073604;28;20237;-77
2022/01/27 04:38:49;;;;;;;39.07;25.50;;;0.20;99.90;;;;;;5073449;28;20248;-77
2022/01/27 04:41:21;;;;;;;40.37;26.43;;;0.20;1.00;;;;;;5073589;28;20202;-77
2022/01/27 04:43:55;;;;;;;35.57;25.97;;;0.20;1.00;;;;;;5073314;28;20732;-76
2022/01/27 04:46:30;;;;;;;36.90;25.63;;;0.20;1.00;;;;;;5073666;28;20233;-76
2022/01/27 04:49:01;;;;;;;34.17;24.73;;;0.20;1.00;;;;;;5073207;28;20201;-76
2022/01/27 04:51:30;;;;;;;34.20;24.80;;;0.20;1.00;;;;;;5073274;28;20325;-76
2022/01/27 04:54:02;;;;;;;31.90;23.83;;;0.10;99.90;;;;;;5073063;28;20330;-76
2022/01/27 04:56:31;;;;;;;34.83;24.90;;;0.20;1.00;;;;;;5073512;28;20616;-77
2022/01/27 04:59:02;;;;;;;30.77;23.73;;;0.20;99.90;;;;;;5073075;28;20206;-75
2022/01/27 05:01:33;;;;;;;32.13;22.10;;;0.10;99.90;;;;;;5073300;28;20213;-75
2022/01/27 05:04:04;;;;;;;28.63;20.43;;;0.10;99.90;;;;;;5072932;28;20198;-76
2022/01/27 05:06:32;;;;;;;29.60;21.53;;;0.10;99.90;;;;;;5073164;28;20205;-76
2022/01/27 05:08:59;;;;;;;26.30;19.97;;;0.00;99.90;;;;;;5072661;28;20210;-76
2022/01/27 05:11:30;;;;;;;30.60;22.50;;;0.00;99.90;;;;;;5073131;28;20230;-75
2022/01/27 05:14:02;;;;;;;32.93;20.43;;;0.00;99.90;;;;;;5072677;28;20220;-75
2022/01/27 05:16:30;;;;;;;27.57;21.73;;;0.00;99.90;;;;;;5072862;28;20206;-77
2022/01/27 05:18:57;;;;;;;26.13;20.13;;;0.00;99.90;;;;;;5076737;28;21087;-77
2022/01/27 05:21:25;;;;;;;28.67;21.13;;;-0.10;99.90;;;;;;5093032;28;20208;-81
2022/01/27 05:23:53;;;;;;;28.83;22.00;;;-0.10;99.90;;;;;;5092666;28;20224;-77
2022/01/27 05:26:20;;;;;;;25.33;19.60;;;0.00;99.90;;;;;;5092730;28;20757;-77
2022/01/27 05:28:47;;;;;;;23.70;18.67;;;0.00;99.90;;;;;;5092792;28;20393;-78
2022/01/27 05:31:14;;;;;;;29.67;19.20;;;0.00;99.90;;;;;;5092979;28;20233;-76
2022/01/27 05:33:41;;;;;;;24.93;17.80;;;0.00;99.90;;;;;;5092443;28;20562;-81
2022/01/27 05:36:08;;;;;;;25.33;18.60;;;-0.10;99.90;;;;;;5093122;28;20623;-76
2022/01/27 05:38:37;;;;;;;25.60;17.97;;;-0.10;99.90;;;;;;5093610;28;20201;-82
2022/01/27 05:41:06;;;;;;;29.77;17.47;;;-0.10;99.90;;;;;;5093467;28;20197;-82
2022/01/27 05:43:33;;;;;;;24.73;17.57;;;0.00;99.90;;;;;;5093273;28;20259;-81
2022/01/27 05:46:00;;;;;;;25.57;17.93;;;0.00;99.90;;;;;;5092850;28;20206;-78
2022/01/27 05:48:27;;;;;;;28.17;16.60;;;-0.30;99.90;;;;;;5092731;28;20205;-77
2022/01/27 05:50:54;;;;;;;26.10;17.17;;;-0.30;99.90;;;;;;5092295;28;20278;-81
2022/01/27 05:53:21;;;;;;;21.80;17.60;;;-0.20;1.00;;;;;;5092863;28;20260;-81
2022/01/27 05:55:48;;;;;;;24.23;17.83;;;-0.10;99.90;;;;;;5092077;28;20270;-84
2022/01/27 05:58:17;;;;;;;27.77;18.43;;;-0.10;99.90;;;;;;5092979;28;20615;-85
2022/01/27 06:00:44;;;;;;;26.83;17.80;;;-0.20;99.90;;;;;;5091770;28;20258;-81
2022/01/27 06:03:11;;;;;;;39.03;25.00;;;-0.30;99.90;;;;;;5092585;28;20247;-81
2022/01/27 06:05:38;;;;;;;35.17;24.60;;;-0.30;99.90;;;;;;5092592;28;20205;-81
2022/01/27 06:08:06;;;;;;;75.57;32.50;;;-0.30;1.00;;;;;;5094022;28;20205;-82
2022/01/27 06:10:33;;;;;;;37.93;26.17;;;-0.40;1.00;;;;;;5092792;28;20250;-81
2022/01/27 06:13:00;;;;;;;39.30;26.27;;;-0.50;1.00;;;;;;5092224;28;20619;-78
2022/01/27 06:15:29;;;;;;;38.70;26.50;;;-0.60;1.00;;;;;;5092571;28;20202;-82
2022/01/27 06:17:57;;;;;;;41.50;28.63;;;-0.60;1.00;;;;;;5091837;28;20201;-83
2022/01/27 06:20:24;;;;;;;37.60;25.40;;;-0.50;1.00;;;;;;5092306;28;20583;-80
2022/01/27 06:22:57;;;;;;;43.33;27.63;;;-0.60;1.00;;;;;;5091415;28;20231;-78
2022/01/27 06:25:25;;;;;;;42.03;26.70;;;-0.60;1.00;;;;;;5091990;28;20241;-79
2022/01/27 06:27:52;;;;;;;41.47;26.67;;;-0.50;1.00;;;;;;5091742;28;20216;-79
2022/01/27 06:30:19;;;;;;;45.63;29.87;;;-0.40;1.00;;;;;;5091986;28;20198;-79
2022/01/27 06:32:48;;;;;;;51.67;31.33;;;-0.40;1.00;;;;;;5091145;28;20766;-80
2022/01/27 06:35:15;;;;;;;61.53;32.47;;;-0.40;1.00;;;;;;5091780;28;20201;-80
2022/01/27 06:37:44;;;;;;;85.67;34.33;;;-0.40;1.00;;;;;;5091281;28;20205;-81
2022/01/27 06:40:14;;;;;;;59.73;33.30;;;-0.40;1.00;;;;;;5091607;28;20669;-78
2022/01/27 06:42:41;;;;;;;47.73;32.47;;;-0.40;1.00;;;;;;5091246;28;20256;-78
2022/01/27 06:45:09;;;;;;;56.80;31.53;;;-0.30;1.00;;;;;;5091767;28;20209;-79
2022/01/27 06:47:36;;;;;;;49.33;32.13;;;-0.30;1.00;;;;;;5091651;28;20202;-80
2022/01/27 06:50:05;;;;;;;50.67;29.60;;;-0.30;1.00;;;;;;5091306;28;20213;-81
2022/01/27 06:52:33;;;;;;;39.40;27.27;;;-0.40;1.00;;;;;;5091217;28;20237;-80
2022/01/27 06:55:02;;;;;;;41.17;26.60;;;-0.40;1.00;;;;;;5091279;28;20550;-82
2022/01/27 06:57:29;;;;;;;44.80;28.33;;;-0.40;1.00;;;;;;5091515;28;20216;-77
2022/01/27 06:59:56;;;;;;;46.63;29.13;;;-0.40;1.00;;;;;;5091109;28;20738;-78
2022/01/27 07:02:23;;;;;;;47.43;30.43;;;-0.40;1.00;;;;;;5091111;28;20209;-81
2022/01/27 07:04:50;;;;;;;47.80;29.17;;;-0.40;1.00;;;;;;5090984;28;20205;-79
2022/01/27 07:07:18;;;;;;;41.60;27.70;;;-0.40;99.90;;;;;;5091224;28;20624;-80
2022/01/27 07:09:45;;;;;;;47.60;27.83;;;-0.40;99.90;;;;;;5090938;28;20255;-78
2022/01/27 07:12:12;;;;;;;43.83;26.83;;;-0.40;1.00;;;;;;5091146;28;20225;-77
2022/01/27 07:14:39;;;;;;;42.40;27.37;;;-0.40;1.00;;;;;;5090637;28;20204;-78
2022/01/27 07:17:06;;;;;;;62.73;44.30;;;-0.30;99.90;;;;;;5091463;28;20733;-81
2022/01/27 07:19:33;;;;;;;63.53;41.20;;;-0.40;99.90;;;;;;5091538;28;20212;-80
2022/01/27 07:22:00;;;;;;;56.63;37.87;;;-0.40;99.90;;;;;;5090838;28;20205;-80
2022/01/27 07:24:29;;;;;;;45.67;29.90;;;-0.50;99.90;;;;;;5091182;28;20742;-76
2022/01/27 07:26:56;;;;;;;57.43;35.20;;;-0.40;99.90;;;;;;5091233;28;20198;-76
2022/01/27 07:29:23;;;;;;;48.87;31.67;;;-0.50;99.90;;;;;;5091386;28;20206;-77
2022/01/27 07:31:50;;;;;;;51.33;35.17;;;-0.40;99.90;;;;;;5090476;28;20229;-79
2022/01/27 07:34:17;;;;;;;40.97;29.57;;;-0.30;1.00;;;;;;5091154;28;20257;-79
2022/01/27 07:36:44;;;;;;;39.57;27.13;;;-0.20;99.90;;;;;;5090469;28;20627;-79
2022/01/27 07:39:14;;;;;;;38.97;25.77;;;-0.20;99.90;;;;;;5090962;28;20209;-77
2022/01/27 07:41:44;;;;;;;30.17;22.53;;;-0.10;99.90;;;;;;5090711;28;20208;-82
2022/01/27 07:44:12;;;;;;;33.23;21.00;;;-0.20;99.90;;;;;;5091014;28;20285;-83
2022/01/27 07:46:39;;;;;;;35.07;22.03;;;-0.10;99.90;;;;;;5090845;28;20197;-77
2022/01/27 07:49:06;;;;;;;32.57;21.13;;;0.40;99.90;;;;;;5091819;28;20201;-87
2022/01/27 07:51:33;;;;;;;31.27;23.10;;;0.50;1.00;;;;;;5092054;28;20233;-85
2022/01/27 07:54:01;;;;;;;33.47;22.10;;;0.70;1.00;;;;;;5091105;28;20250;-84
2022/01/27 07:56:28;;;;;;;29.30;20.10;;;1.30;1.00;;;;;;5091106;28;20205;-79
2022/01/27 07:58:56;;;;;;;33.40;21.77;;;0.70;1.00;;;;;;5090293;28;20254;-80
2022/01/27 08:01:24;;;;;;;37.93;24.07;;;0.50;1.00;;;;;;5090543;28;20239;-76
2022/01/27 08:03:52;;;;;;;43.03;27.47;;;0.70;1.00;;;;;;5090785;28;20206;-80
2022/01/27 08:06:20;;;;;;;37.07;27.83;;;1.30;1.00;;;;;;5095113;28;20585;-79
2022/01/27 08:08:47;;;;;;;37.10;24.00;;;1.80;1.00;;;;;;5094227;28;20201;-81
2022/01/27 08:11:15;;;;;;;33.77;22.93;;;1.80;1.00;;;;;;5094947;28;20201;-82
2022/01/27 08:13:43;;;;;;;38.60;27.10;;;1.50;1.00;;;;;;5093876;28;20669;-82
2022/01/27 08:16:12;;;;;;;37.80;27.67;;;1.90;1.00;;;;;;5094921;28;20202;-80
2022/01/27 08:18:39;;;;;;;41.63;29.13;;;1.80;1.00;;;;;;5094452;28;20556;-72
2022/01/27 08:21:07;;;;;;;36.70;27.77;;;1.60;1.00;;;;;;5094915;28;20235;-77
2022/01/27 08:23:35;;;;;;;35.37;29.37;;;2.00;1.00;;;;;;5094711;28;20205;-79
2022/01/27 08:26:06;;;;;;;37.80;29.97;;;1.90;1.00;;;;;;5093865;28;20201;-78
2022/01/27 08:28:38;;;;;;;43.03;31.57;;;1.70;1.00;;;;;;5094443;28;20607;-79
2022/01/27 08:31:06;;;;;;;37.67;28.77;;;1.40;1.00;;;;;;5094653;28;20233;-78
2022/01/27 08:33:38;;;;;;;39.77;29.07;;;1.10;1.00;;;;;;5094622;28;20241;-79
2022/01/27 08:36:05;;;;;;;37.87;29.40;;;1.10;1.00;;;;;;5094524;28;20292;-83
2022/01/27 08:38:32;;;;;;;43.37;31.30;;;1.40;1.00;;;;;;5095494;28;20202;-82
2022/01/27 08:41:01;;;;;;;40.27;30.73;;;1.50;1.00;;;;;;5093973;28;20693;-81
2022/01/27 08:43:28;;;;;;;35.00;30.37;;;1.30;1.00;;;;;;5093803;28;20205;-76
2022/01/27 08:45:55;;;;;;;34.83;28.40;;;1.40;1.00;;;;;;5093773;28;20206;-80
2022/01/27 08:48:22;;;;;;;43.07;32.57;;;1.70;1.00;;;;;;5092354;28;20202;-79
2022/01/27 08:50:58;;;;;;;38.37;30.30;;;2.00;1.00;;;;;;5090143;28;20680;-79
2022/01/27 08:53:26;;;;;;;42.63;31.93;;;1.90;1.00;;;;;;5074116;28;20233;-77
2022/01/27 08:55:54;;;;;;;45.60;31.73;;;2.40;1.00;;;;;;5104778;28;20223;-81
2022/01/27 08:58:24;;;;;;;35.97;27.90;;;3.60;1.00;;;;;;5093078;28;20198;-73
2022/01/27 09:00:51;;;;;;;36.57;30.60;;;3.10;1.00;;;;;;5093190;28;20208;-74
2022/01/27 09:03:20;;;;;;;41.57;28.57;;;3.00;1.00;;;;;;5089374;28;20211;-80
2022/01/27 09:05:47;;;;;;;39.07;28.33;;;3.00;1.00;;;;;;5087554;28;20209;-78
2022/01/27 09:08:16;;;;;;;36.67;29.50;;;3.10;1.00;;;;;;5087645;28;20208;-79
2022/01/27 09:10:46;;;;;;;33.30;27.17;;;3.30;1.00;;;;;;5091425;28;20300;-78
2022/01/27 09:13:14;;;;;;;39.50;29.03;;;3.90;1.00;;;;;;5087235;28;20226;-79
2022/01/27 09:15:43;;;;;;;39.90;27.33;;;5.60;1.00;;;;;;5083304;28;20271;-78
2022/01/27 09:18:10;;;;;;;35.43;28.03;;;5.90;1.00;;;;;;5092809;28;20197;-79
2022/01/27 09:20:38;;;;;;;39.80;28.93;;;5.80;1.00;;;;;;5093495;28;20206;-77
2022/01/27 09:23:12;;;;;;;39.93;29.43;;;5.60;1.00;;;;;;5074192;28;20221;-78
2022/01/27 09:25:44;;;;;;;36.20;30.97;;;7.10;1.00;;;;;;5077867;28;20201;-75
2022/01/27 09:28:11;;;;;;;36.07;28.63;;;7.10;1.00;;;;;;5092796;28;20198;-78
2022/01/27 09:30:39;;;;;;;33.33;26.83;;;7.00;1.00;;;;;;5093161;28;20205;-79
2022/01/27 09:33:07;;;;;;;35.73;24.07;;;7.70;1.00;;;;;;5084830;28;20229;-79
2022/01/27 09:35:35;;;;;;;25.80;17.63;;;7.60;1.00;;;;;;5092574;28;20206;-79
2022/01/27 09:38:02;;;;;;;22.83;16.70;;;9.00;1.00;;;;;;5092037;28;20205;-78
2022/01/27 09:40:30;;;;;;;21.37;18.03;;;10.20;1.00;;;;;;5072244;28;20290;-78
2022/01/27 09:43:00;;;;;;;21.13;17.50;;;10.80;1.00;;;;;;5071240;28;20627;-79
2022/01/27 09:45:29;;;;;;;24.03;16.90;;;10.60;1.00;;;;;;5072356;28;20259;-79
2022/01/27 09:48:00;;;;;;;26.70;20.43;;;9.90;1.00;;;;;;5072139;28;20580;-79
2022/01/27 09:50:45;;;;;;;22.27;18.27;;;8.90;1.00;;;;;;5072360;28;20264;-80
2022/01/27 09:53:12;;;;;;;27.07;18.63;;;9.50;1.00;;;;;;5072251;28;20241;-79
2022/01/27 09:55:40;;;;;;;25.93;19.37;;;10.20;1.00;;;;;;5071656;28;20296;-78
2022/01/27 09:58:10;;;;;;;26.43;19.13;;;11.10;1.00;;;;;;5072490;28;20205;-77
2022/01/27 10:00:38;;;;;;;25.73;17.10;;;12.00;1.00;;;;;;5072160;28;20202;-76
2022/01/27 10:03:09;;;;;;;23.67;18.13;;;11.80;1.00;;;;;;5072439;28;20206;-79
2022/01/27 10:05:37;;;;;;;25.30;18.97;;;11.70;1.00;;;;;;5072510;28;20209;-79
2022/01/27 10:08:09;;;;;;;24.77;17.60;;;13.10;99.90;;;;;;5072398;28;20197;-78
2022/01/27 10:10:40;;;;;;;22.67;18.60;;;13.50;99.90;;;;;;5086319;28;20293;-77
2022/01/27 10:13:10;;;;;;;31.67;20.70;;;12.20;99.90;;;;;;5092303;28;20240;-79
2022/01/27 10:15:40;;;;;;;31.07;20.60;;;12.60;99.90;;;;;;5092146;28;20262;-78
2022/01/27 10:18:11;;;;;;;26.07;19.43;;;14.30;99.90;;;;;;5092046;28;20244;-78
2022/01/27 10:20:42;;;;;;;21.80;19.50;;;14.90;99.90;;;;;;5092247;28;20292;-78
2022/01/27 10:23:12;;;;;;;28.67;21.08;;;15.70;99.90;;;;;;5092097;28;20216;-79
2022/01/27 10:25:46;;;;;;;27.38;20.42;;;15.20;99.90;;;;;;5091440;28;20233;-77
2022/01/27 10:28:41;;;;;;;24.88;19.70;;;14.60;99.90;;;;;;5090516;28;20226;-78
2022/01/27 10:31:11;;;;;;;27.00;20.92;;;13.70;99.90;;;;;;5091851;28;20669;-75
2022/01/27 10:33:47;;;;;;;24.27;19.67;;;14.00;99.90;;;;;;5092083;28;20765;-78
2022/01/27 10:36:17;;;;;;;23.23;17.27;;;15.00;99.90;;;;;;5091399;28;20323;-78
2022/01/27 10:38:45;;;;;;;21.58;16.92;;;12.90;99.90;;;;;;5080626;28;20208;-77
2022/01/27 10:41:13;;;;;;;20.70;16.83;;;9.60;99.90;;;;;;5080780;28;20209;-80
2022/01/27 10:43:42;;;;;;;21.87;17.63;;;7.80;1.00;;;;;;5084830;28;20198;-79
2022/01/27 10:46:19;;;;;;;25.40;18.30;;;6.80;1.00;;;;;;5087403;28;20206;-80
2022/01/27 10:48:53;;;;;;;21.50;18.00;;;6.30;1.00;;;;;;5090693;28;20205;-80
2022/01/27 10:51:25;;;;;;;24.90;19.13;;;6.00;1.00;;;;;;5076086;28;20210;-80
2022/01/27 10:53:59;;;;;;;21.17;17.67;;;6.00;1.00;;;;;;5070489;28;20241;-77
2022/01/27 10:56:32;;;;;;;25.33;18.00;;;6.10;1.00;;;;;;5071187;28;20626;-77
2022/01/27 10:59:04;;;;;;;25.03;16.73;;;6.00;1.00;;;;;;5070787;28;20207;-77
2022/01/27 11:01:34;;;;;;;20.17;16.87;;;5.90;1.00;;;;;;5070987;28;20252;-77
2022/01/27 11:04:05;;;;;;;25.37;18.50;;;6.00;1.00;;;;;;5071023;28;20210;-77
2022/01/27 11:06:34;;;;;;;25.57;17.37;;;6.10;1.00;;;;;;5071172;28;20202;-77
2022/01/27 11:09:07;;;;;;;20.53;17.03;;;6.10;1.00;;;;;;5075165;28;20201;-77
2022/01/27 11:11:35;;;;;;;24.17;17.80;;;6.20;1.00;;;;;;5085886;28;20221;-77
2022/01/27 11:14:04;;;;;;;21.43;16.57;;;6.30;1.00;;;;;;5086127;28;20302;-77
2022/01/27 11:16:37;;;;;;;19.23;16.57;;;6.40;1.00;;;;;;5078519;28;20292;-77
2022/01/27 11:19:21;;;;;;;24.87;17.30;;;6.40;1.00;;;;;;5083525;28;20210;-77
2022/01/27 11:21:55;;;;;;;22.50;17.10;;;6.40;1.00;;;;;;5070320;28;20297;-77
2022/01/27 11:24:28;;;;;;;21.57;16.37;;;6.50;1.00;;;;;;5076324;28;20221;-77
2022/01/27 11:27:00;;;;;;;23.00;16.37;;;6.70;1.00;;;;;;5090412;28;20216;-77
2022/01/27 11:29:31;;;;;;;19.53;15.77;;;6.70;1.00;;;;;;5090323;28;20207;-77
2022/01/27 11:32:21;;;;;;;22.77;17.80;;;6.70;1.00;;;;;;5089678;28;20205;-77
2022/01/27 11:34:51;;;;;;;24.40;19.40;;;6.80;1.00;;;;;;5078884;28;20210;-77
2022/01/27 11:37:31;;;;;;;26.97;18.13;;;6.80;1.00;;;;;;5070597;28;20211;-77
2022/01/27 11:40:05;;;;;;;22.73;18.17;;;7.00;1.00;;;;;;5074994;28;20209;-77
2022/01/27 11:43:01;;;;;;;21.87;18.87;;;7.10;1.00;;;;;;5081989;28;20292;-76
2022/01/27 11:45:35;;;;;;;22.13;19.43;;;7.20;1.00;;;;;;5082154;28;20209;-77
2022/01/27 11:48:07;;;;;;;23.30;17.10;;;7.20;1.00;;;;;;5096775;28;20209;-76
2022/01/27 11:50:38;;;;;;;23.97;18.20;;;7.20;1.00;;;;;;5088428;28;20270;-75
2022/01/27 11:53:07;;;;;;;23.90;18.40;;;7.30;1.00;;;;;;5097504;28;20228;-79
2022/01/27 11:55:55;;;;;;;25.60;18.63;;;7.40;1.00;;;;;;5097494;28;20729;-76
2022/01/27 11:58:25;;;;;;;24.90;17.30;;;7.50;1.00;;;;;;5094128;28;20197;-76
2022/01/27 12:01:06;;;;;;;25.03;19.47;;;7.60;1.00;;;;;;5096123;28;20240;-75
2022/01/27 12:03:33;;;;;;;26.53;20.17;;;7.70;1.00;;;;;;5085768;28;20623;-74
2022/01/27 12:06:19;;;;;;;23.47;19.20;;;7.70;1.00;;;;;;5091482;28;20205;-74
2022/01/27 12:08:46;;;;;;;28.40;19.27;;;7.80;1.00;;;;;;5083520;28;20232;-73
2022/01/27 12:11:47;;;;;;;28.27;19.87;;;7.80;1.00;;;;;;5085874;28;20209;-75
2022/01/27 12:14:17;;;;;;;24.10;18.67;;;7.80;1.00;;;;;;5085775;28;20228;-77
2022/01/27 12:17:05;;;;;;;23.00;17.47;;;7.90;1.00;;;;;;5105308;28;20209;-77
2022/01/27 12:19:47;;;;;;;22.07;17.50;;;8.10;1.00;;;;;;5083420;28;20208;-74
2022/01/27 12:22:16;;;;;;;21.20;16.57;;;8.20;1.00;;;;;;5096672;28;20296;-75
2022/01/27 12:24:52;;;;;;;22.50;16.67;;;8.30;1.00;;;;;;5095228;28;20213;-77
2022/01/27 12:27:19;;;;;;;23.50;18.67;;;8.40;1.00;;;;;;5096158;28;20669;-76
2022/01/27 12:29:48;;;;;;;23.27;18.27;;;8.40;1.00;;;;;;5087610;28;20634;-75
2022/01/27 12:32:22;;;;;;;24.43;19.33;;;8.40;1.00;;;;;;5091902;28;20209;-75
2022/01/27 12:34:51;;;;;;;26.30;21.30;;;8.50;1.00;;;;;;5096215;28;20217;-75
2022/01/27 12:37:20;;;;;;;28.27;21.17;;;8.60;1.00;;;;;;5096543;28;20233;-77
2022/01/27 12:39:52;;;;;;;22.73;20.00;;;8.70;1.00;;;;;;5096106;28;20288;-75
2022/01/27 12:42:20;;;;;;;28.00;19.50;;;8.80;1.00;;;;;;5096753;28;20271;-75
2022/01/27 12:44:55;;;;;;;27.07;19.57;;;8.70;1.00;;;;;;5096573;28;20581;-74
2022/01/27 12:47:25;;;;;;;22.80;17.00;;;8.90;1.00;;;;;;5096092;28;20211;-75
2022/01/27 12:50:03;;;;;;;21.20;17.67;;;8.80;1.00;;;;;;5095574;28;20917;-74
2022/01/27 12:52:32;;;;;;;32.43;22.70;;;8.70;1.00;;;;;;5102432;28;20205;-76
2022/01/27 12:55:00;;;;;;;42.93;30.60;;;8.70;1.00;;;;;;5092998;28;20229;-77
2022/01/27 12:57:29;;;;;;;39.33;31.10;;;8.60;1.00;;;;;;5080662;28;20325;-81
2022/01/27 12:59:58;;;;;;;43.73;30.50;;;8.40;1.00;;;;;;5075449;28;20232;-78
2022/01/27 13:02:29;;;;;;;40.97;33.93;;;8.30;1.00;;;;;;5088302;28;20201;-80
2022/01/27 13:04:59;;;;;;;53.50;35.50;;;8.40;1.00;;;;;;5078670;28;20214;-78
2022/01/27 13:07:28;;;;;;;59.27;38.33;;;8.50;1.00;;;;;;5085165;28;20720;-80
2022/01/27 13:09:57;;;;;;;53.97;38.90;;;8.60;1.00;;;;;;5081487;28;20208;-78
2022/01/27 13:12:32;;;;;;;49.03;34.37;;;8.40;1.00;;;;;;5085903;28;20695;-75
2022/01/27 13:15:06;;;;;;;49.60;35.17;;;8.10;1.00;;;;;;5085949;28;20228;-75
2022/01/27 13:17:42;;;;;;;49.33;36.77;;;8.00;1.00;;;;;;5085296;28;20224;-77
2022/01/27 13:20:13;;;;;;;54.50;36.80;;;7.80;1.00;;;;;;5088237;28;20254;-78